Flight Track Log - Related Links

Times and Time Zones

All times are in EDT time to prevent confusion due to time zone crossing. See the SKW6492 flight status page for this flight to view local times or setup timezone preferences in your user account.

Time Position Orientation Groundspeed Altitude Reporting Facility
EDT Latitude Longitude Course Direction KTS MPH feet Rate Location/Type
Sun 10:14:11 PM 39.8833 -104.6000 348° North 171 197 6,800  Level Denver TRACON
Sun 10:15:11 PM 39.9167 -104.5333 57° Northeast 266 306 8,800 2,100 Climbing Denver TRACON
Sun 10:16:00 PM 40.1112 -104.8871 347° North  Level Estimated
Sun 10:16:11 PM 40.0000 -104.5167 North 292 336 11,000  Level Denver TRACON
Sun 10:17:00 PM 40.1943 -104.9588 346° North  Level Estimated
Sun 10:17:11 PM 40.0833 -104.5000 North 323 372 13,000  Level Denver TRACON
Sun 10:18:00 PM 40.2922 -104.9360 10° North  Level FlightAware Approximate
Sun 10:18:18 PM 40.1769 -104.5331 345° North 331 381 15,200  Level Denver Center
Sun 10:19:00 PM 40.3746 -105.0093 348° North  Level Estimated
Sun 10:19:20 PM 40.2617 -104.5775 338° Northwest 332 382 16,700  Level Denver Center
Sun 10:20:21 PM 40.3617 -104.6283 339° North 357 411 18,100 1,366 Climbing Denver Center
Sun 10:21:23 PM 40.4583 -104.6783 339° North 371 427 19,500 1,306 Climbing Denver Center
Sun 10:22:25 PM 40.5575 -104.7300 338° Northwest 386 444 20,800 1,415 Climbing Denver Center
Sun 10:23:26 PM 40.6639 -104.7883 337° Northwest 383 441 22,400 1,317 Climbing Denver Center
Sun 10:24:28 PM 40.7522 -104.8308 340° North 384 442 23,500 1,065 Climbing Denver Center
Sun 10:25:30 PM 40.8753 -104.8917 340° North 395 455 24,600 1,065 Climbing Denver Center
Sun 10:26:32 PM 40.9819 -104.9442 340° North 407 468 25,700 1,024 Climbing Denver Center
Sun 10:27:33 PM 41.0953 -105.0003 340° North 416 479 26,700 878 Climbing Denver Center
Sun 10:28:35 PM 41.2003 -105.0522 340° North 421 484 27,500 823 Climbing Denver Center
Sun 10:29:37 PM 41.3250 -105.1144 339° North 425 489 28,400 829 Climbing Denver Center
Sun 10:30:38 PM 41.4333 -105.1683 340° North 432 497 29,200 683 Climbing Denver Center
Sun 10:31:40 PM 41.5414 -105.2225 339° North 433 498 29,800 677 Climbing Denver Center
Sun 10:32:42 PM 41.6469 -105.3250 324° Northwest 421 484 30,600 732 Climbing Denver Center
Sun 10:33:43 PM 41.7328 -105.4167 321° Northwest 416 479 31,300 683 Climbing Denver Center
Sun 10:34:45 PM 41.8325 -105.5242 321° Northwest 412 474 32,000 341 Climbing Denver Center
Sun 10:35:46 PM 41.9189 -105.6183 321° Northwest 417 480 32,000  Level Denver Center
Sun 10:36:48 PM 42.0078 -105.7161 321° Northwest 425 489 32,000  Level Denver Center
Sun 10:37:49 PM 42.1119 -105.8314 321° Northwest 432 497 32,000  Level Denver Center
Sun 10:38:51 PM 42.2028 -105.9300 321° Northwest 436 502 32,000  Level Denver Center
Sun 10:39:53 PM 42.3042 -106.0436 320° Northwest 426 490 32,000  Level Denver Center
Sun 10:40:54 PM 42.3906 -106.1400 321° Northwest 420 483 32,000  Level Denver Center
Sun 10:41:56 PM 42.4778 -106.2372 321° Northwest 422 486 32,000  Level Denver Center
Sun 10:42:57 PM 42.5797 -106.3500 321° Northwest 423 487 32,000  Level Denver Center
Sun 10:43:59 PM 42.6669 -106.4508 320° Northwest 428 493 32,000 98 Level Denver Center
Sun 10:45:00 PM 42.7733 -106.5703 321° Northwest 441 507 32,200 683 Climbing Denver Center
Sun 10:46:02 PM 42.8639 -106.6706 321° Northwest 439 505 33,400 878 Climbing Denver Center
Sun 10:47:03 PM 42.9622 -106.7833 320° Northwest 420 483 34,000 293 Climbing Denver Center
Sun 10:48:05 PM 43.0475 -106.8822 320° Northwest 421 484 34,000  Level Denver Center
Sun 10:48:47 PM 43.1161 -106.9614 320° Northwest 425 489 34,000  Level Salt Lake Center
Sun 10:49:49 PM 43.2083 -107.0694 320° Northwest 434 499 34,000  Level Salt Lake Center
Sun 10:50:50 PM 43.3022 -107.1778 320° Northwest 440 506 34,000  Level Salt Lake Center
Sun 10:51:52 PM 43.3942 -107.2833 320° Northwest 434 499 34,000  Level Salt Lake Center
Sun 10:52:53 PM 43.4839 -107.3892 319° Northwest 427 491 34,000  Level Salt Lake Center
Sun 10:53:55 PM 43.5722 -107.4928 320° Northwest 420 483 34,000  Level Salt Lake Center
Sun 10:54:56 PM 43.6644 -107.5981 320° Northwest 427 491 34,000  Level Salt Lake Center
Sun 10:55:58 PM 43.7564 -107.7039 320° Northwest 430 495 34,000 -1,171 Level Salt Lake Center
Sun 10:56:59 PM 43.8583 -107.8458 315° West 432 497 31,600 -2,878 Descending Salt Lake Center
Sun 10:58:01 PM 43.9450 -107.9681 315° West 443 510 28,100 -3,415 Descending Salt Lake Center
Sun 10:59:02 PM 44.0303 -108.0850 315° West 435 501 24,600 -3,197 Descending Salt Lake Center
Sun 11:00:03 PM 44.1128 -108.2003 315° West 424 488 21,600 -2,537 Descending Salt Lake Center
Sun 11:01:05 PM 44.1900 -108.3067 315° West 401 461 19,400 -2,488 Descending Salt Lake Center
Sun 11:02:06 PM 44.2633 -108.4069 316° Northwest 380 437 16,500 -2,902 Descending Salt Lake Center
Sun 11:03:07 PM 44.3486 -108.4806 328° Northwest 369 425 13,500 -2,855 Descending Salt Lake Center
Sun 11:04:10 PM 44.4322 -108.5489 330° Northwest 357 411 10,600 -1,756 Descending Salt Lake Center
Sun 11:05:10 PM 44.5069 -108.6111 329° Northwest 337 388 9,900 -744 Descending Salt Lake Center
Sun 11:06:11 PM 44.5711 -108.6639 330° Northwest 300 345 9,100 -738 Descending Salt Lake Center
Sun 11:07:12 PM 44.6244 -108.7200 323° Northwest 269 310 8,400 -488 Descending Salt Lake Center
Sun 11:08:14 PM 44.6617 -108.8000 303° West 237 273 8,100 -146 Descending Salt Lake Center
Sun 11:09:15 PM 44.7189 -108.7803 14° North 226 260 8,100 -49 Level Salt Lake Center
Sun 11:10:16 PM 44.7650 -108.7222 42° Northeast 222 255 8,000  Descending Salt Lake Center
Sun 11:11:17 PM 44.7275 -108.6661 133° Southeast 233 268 8,100 49 Climbing Salt Lake Center
Sun 11:12:19 PM 44.6833 -108.7283 225° Southwest 231 266 8,100 -146 Level Salt Lake Center
Sun 11:13:20 PM 44.6508 -108.7914 234° Southwest 218 251 7,800 -246 Descending Salt Lake Center
Sun 11:14:21 PM 44.6233 -108.8411 232° Southwest 190 219 7,600 -148 Descending Salt Lake Center
Sun 11:15:22 PM 44.5958 -108.8922 233° Southwest 174 200 7,500 -541 Descending Salt Lake Center
Sun 11:16:23 PM 44.5675 -108.9400 230° Southwest 166 191 6,500 -683 Descending Salt Lake Center
Sun 11:17:25 PM 44.5344 -108.9994 232° Southwest 165 190 6,100 927 Descending Salt Lake Center
Sun 11:18:26 PM 44.4989 -109.0608 231° Southwest 181 208 8,400 1,770 Climbing Salt Lake Center
Sun 11:19:27 PM 44.4444 -109.0075 145° Southeast 242 278 9,700 590 Climbing Salt Lake Center
Sun 11:20:28 PM 44.4083 -108.9125 118° Southeast 269 310 9,600  Descending Salt Lake Center
Sun 11:21:29 PM 44.3619 -108.8456 134° Southeast 257 296 9,700 246 Climbing Salt Lake Center
Sun 11:22:30 PM 44.3811 -108.7706 70° East 253 291 10,100 148 Climbing Salt Lake Center
Sun 11:23:31 PM 44.4408 -108.7350 23° Northeast 240 276 10,000 -341 Descending Salt Lake Center
Sun 11:24:33 PM 44.5031 -108.7033 20° North 236 272 9,400 -439 Descending Salt Lake Center
Sun 11:25:34 PM 44.5639 -108.6722 20° North 235 270 9,100 -541 Descending Salt Lake Center
Sun 11:26:35 PM 44.6153 -108.7161 329° Northwest 225 259 8,300 -541 Descending Salt Lake Center
Sun 11:27:36 PM 44.6497 -108.7742 310° West 216 249 8,000 -344 Descending Salt Lake Center
Sun 11:28:37 PM 44.6247 -108.8378 241° Southwest 199 229 7,600 -344 Descending Salt Lake Center
Sun 11:29:38 PM 44.5931 -108.8972 233° Southwest 175 201 7,300 -590 Descending Salt Lake Center
Sun 11:30:39 PM 44.5647 -108.9469 231° Southwest 167 192 6,400 -367 Descending Salt Lake Center
Sun 11:32:05 PM 44.5258 -109.0178 232° Southwest 194 223 6,400 1,184 Level Salt Lake Center
Sun 11:33:06 PM 44.4797 -109.0683 218° Southwest 241 277 9,300 1,820 Climbing Salt Lake Center
Sun 11:34:07 PM 44.4419 -108.9925 125° Southeast 257 296 10,100 1,082 Climbing Salt Lake Center
Sun 11:35:08 PM 44.3786 -108.9547 157° South 278 320 11,500 1,672 Climbing Salt Lake Center
Sun 11:36:09 PM 44.3361 -109.0442 236° Southwest 286 329 13,500 1,854 Climbing Salt Lake Center
Sun 11:37:11 PM 44.3061 -109.1536 249° West 300 345 15,300 1,805 Climbing Salt Lake Center
Sun 11:38:12 PM 44.2761 -109.2744 251° West 307 353 17,200 1,525 Climbing Salt Lake Center
Sun 11:39:13 PM 44.2481 -109.3825 250° West 315 362 18,400 1,574 Climbing Salt Lake Center
Sun 11:40:14 PM 44.2142 -109.5178 251° West 321 369 20,400 1,672 Climbing Salt Lake Center
Sun 11:41:15 PM 44.1847 -109.6306 250° West 323 372 21,800 1,426 Climbing Salt Lake Center
Sun 11:42:16 PM 44.1497 -109.7664 250° West 331 381 23,300 1,082 Climbing Salt Lake Center
Sun 11:43:17 PM 44.1200 -109.8831 250° West 334 384 24,000 341 Climbing Salt Lake Center
Sun 11:44:19 PM 44.0867 -110.0050 249° West 347 399 24,000  Level Salt Lake Center
Sun 11:45:20 PM 44.0503 -110.1469 250° West 349 402 24,000  Level Salt Lake Center
Sun 11:46:21 PM 44.0178 -110.2661 249° West 346 398 24,000  Level Salt Lake Center
Sun 11:47:22 PM 43.9858 -110.3850 250° West 343 395 24,000  Level Salt Lake Center
Sun 11:48:23 PM 43.9486 -110.5236 250° West 342 394 24,000  Level Salt Lake Center
Sun 11:49:24 PM 43.9156 -110.6436 249° West 346 398 24,000 -439 Level Salt Lake Center
Sun 11:50:26 PM 43.8769 -110.7842 249° West 348 400 23,100 -1,268 Descending Salt Lake Center
Sun 11:51:27 PM 43.8456 -110.8983 249° West 339 390 21,400 -1,721 Descending Salt Lake Center
Sun 11:52:28 PM 43.8161 -111.0056 249° West 320 368 19,600 -1,918 Descending Salt Lake Center
Sun 11:53:29 PM 43.7811 -111.1314 249° West 315 362 17,500 -2,016 Descending Salt Lake Center
Sun 11:54:30 PM 43.7658 -111.2464 260° West 315 362 15,500 -1,721 Descending Salt Lake Center
Sun 11:55:31 PM 43.7511 -111.3575 260° West 312 359 14,000 -836 Descending Salt Lake Center
Sun 11:56:32 PM 43.7300 -111.4844 257° West 307 353 13,800 -1,082 Descending Salt Lake Center
Sun 11:57:33 PM 43.7217 -111.5925 264° West 306 352 11,800 -1,574 Descending Salt Lake Center
Sun 11:58:34 PM 43.7167 -111.7014 266° West 303 349 10,600 -1,366 Descending Salt Lake Center
Sun 11:59:36 PM 43.7103 -111.8192 266° West 288 331 9,000 -927 Descending Salt Lake Center
Mon 12:00:37 AM 43.6839 -111.8897 243° Southwest 264 304 8,700 -492 Descending Salt Lake Center
Mon 12:01:38 AM 43.6408 -111.9369 218° Southwest 223 257 8,000 -1,082 Descending Salt Lake Center
Mon 12:02:39 AM 43.5953 -111.9869 218° Southwest 197 227 6,500 -1,131 Descending Salt Lake Center
Mon 12:03:40 AM 43.5600 -112.0281 220° Southwest 185 213 5,700 -836 Descending Salt Lake Center
Mon 12:04:41 AM 43.5222 -112.0667 217° Southwest 163 188 4,800 -885 Descending Salt Lake Center
Mon 12:06:00 AM 43.5000 -112.0667 216° Southwest  Level FlightAware Approximate
Mon 12:13:00 AM 43.7226 -111.4313 216° Southwest  Level Estimated
Mon 12:14:00 AM 43.7542 -111.3402 216° Southwest  Level Estimated
Mon 12:15:00 AM 43.7856 -111.2489 216° Southwest  Level Estimated
Mon 12:16:00 AM 43.8170 -111.1576 216° Southwest  Level Estimated
Mon 12:17:00 AM 43.8483 -111.0661 216° Southwest  Level Estimated
Mon 12:18:00 AM 43.8795 -110.9746 216° Southwest  Level Estimated
Mon 12:19:00 AM 43.9107 -110.8830 216° Southwest  Level Estimated
Mon 12:20:00 AM 43.9417 -110.7913 216° Southwest  Level Estimated
Mon 12:21:00 AM 43.9728 -110.6994 216° Southwest  Level Estimated
Mon 12:22:00 AM 44.0037 -110.6075 216° Southwest  Level Estimated
Mon 12:23:00 AM 44.0345 -110.5155 216° Southwest  Level Estimated
Mon 12:24:00 AM 44.0653 -110.4234 216° Southwest  Level Estimated
Mon 12:25:00 AM 44.0960 -110.3312 216° Southwest  Level Estimated
Mon 12:26:00 AM 44.1267 -110.2389 216° Southwest  Level Estimated
Mon 12:27:00 AM 44.1572 -110.1465 216° Southwest  Level Estimated
Mon 12:28:00 AM 44.1877 -110.0540 216° Southwest  Level Estimated
Mon 12:29:00 AM 44.2181 -109.9614 216° Southwest  Level Estimated
Mon 12:30:00 AM 44.2485 -109.8687 216° Southwest  Level Estimated
Mon 12:31:00 AM 44.2787 -109.7759 216° Southwest  Level Estimated
Mon 12:32:00 AM 44.3089 -109.6831 216° Southwest  Level Estimated
Mon 12:33:00 AM 44.3390 -109.5901 216° Southwest  Level Estimated
Mon 12:34:00 AM 44.3691 -109.4970 216° Southwest  Level Estimated
Mon 12:35:00 AM 44.3990 -109.4039 216° Southwest  Level Estimated
Mon 12:36:00 AM 44.4289 -109.3106 216° Southwest  Level Estimated

Login

Don't have an account? Register now (free) for customized features, flight alerts, and more!